createdAt,value
2022-11-21T00:02:20.819Z,98821.49
2022-11-21T00:04:49.029Z,98816.34
2022-11-21T00:07:17.240Z,98815.48
2022-11-21T00:09:45.309Z,98810.34
2022-11-21T00:12:13.347Z,98806.23
2022-11-21T00:14:41.376Z,98808.46
2022-11-21T00:17:10.396Z,98811.02
2022-11-21T00:19:38.398Z,98809.65
2022-11-21T00:22:06.569Z,98801.77
2022-11-21T00:24:34.846Z,98794.06
2022-11-21T00:27:03.169Z,98788.73
2022-11-21T00:29:31.296Z,98781.38
2022-11-21T00:31:59.409Z,98772.98
2022-11-21T00:34:27.804Z,98775.04
2022-11-21T00:36:56.293Z,98769.05
2022-11-21T00:39:24.345Z,98764.08
2022-11-21T00:41:52.456Z,98763.55
2022-11-21T00:44:20.492Z,98762.19
2022-11-21T00:46:48.572Z,98763.91
2022-11-21T00:49:16.685Z,98761.34
2022-11-21T00:51:44.928Z,98756.53
2022-11-21T00:54:13.112Z,98754.80
2022-11-21T00:56:42.192Z,98753.09
2022-11-21T00:59:10.444Z,98750.00
2022-11-21T01:01:38.696Z,98752.73
2022-11-21T01:04:06.891Z,98751.17
2022-11-21T01:06:37.826Z,98746.36
2022-11-21T01:09:06.341Z,98742.25
2022-11-21T01:11:34.582Z,98741.38
2022-11-21T01:14:02.982Z,98733.48
2022-11-21T01:16:32.342Z,98733.13
2022-11-21T01:19:00.736Z,98729.53
2022-11-21T01:21:31.467Z,98730.89
2022-11-21T01:24:01.537Z,98726.25
2022-11-21T01:26:33.100Z,98726.42
2022-11-21T01:29:01.191Z,98723.66
2022-11-21T01:31:30.907Z,98724.86
2022-11-21T01:34:00.701Z,98720.73
2022-11-21T01:36:32.298Z,98721.93
2022-11-21T01:39:03.837Z,98721.23
2022-11-21T01:41:40.597Z,98717.10
2022-11-21T01:44:21.274Z,98715.02
2022-11-21T01:46:51.006Z,98709.86
2022-11-21T01:49:27.634Z,98707.77
2022-11-21T01:52:20.903Z,98702.95
2022-11-21T01:55:10.306Z,98701.90
2022-11-21T01:57:46.530Z,98698.28
2022-11-21T02:00:27.644Z,98699.80
2022-11-21T02:02:58.437Z,98698.93
2022-11-21T02:05:31.549Z,98697.20
2022-11-21T02:08:06.377Z,98702.32
2022-11-21T02:10:38.512Z,98698.52
2022-11-21T02:13:07.188Z,98692.84
2022-11-21T02:15:35.233Z,98687.02
2022-11-21T02:18:03.366Z,98688.40
2022-11-21T02:20:31.489Z,98689.44
2022-11-21T02:23:08.800Z,98682.40
2022-11-21T02:25:39.539Z,98677.11
2022-11-21T02:28:12.133Z,98674.36
2022-11-21T02:30:42.266Z,98670.59
2022-11-21T02:33:11.801Z,98669.73
2022-11-21T02:35:40.399Z,98672.79
2022-11-21T02:38:27.047Z,98675.20
2022-11-21T02:41:26.940Z,98676.05
2022-11-21T02:44:29.987Z,98675.71
2022-11-21T02:46:58.470Z,98672.45
2022-11-21T02:49:41.482Z,98666.46
2022-11-21T02:52:09.996Z,98662.53
2022-11-21T02:54:38.063Z,98656.85
2022-11-21T02:57:06.256Z,98651.86
2022-11-21T02:59:34.368Z,98646.01
2022-11-21T03:02:02.530Z,98644.08
2022-11-21T03:04:30.930Z,98641.85
2022-11-21T03:06:59.040Z,98644.73
2022-11-21T03:09:27.616Z,98642.85
2022-11-21T03:11:55.858Z,98638.89
2022-11-21T03:14:24.007Z,98639.06
2022-11-21T03:16:52.461Z,98637.16
2022-11-21T03:19:20.748Z,98627.55
2022-11-21T03:21:48.863Z,98619.83
2022-11-21T03:24:16.952Z,98613.82
2022-11-21T03:26:45.216Z,98609.04
2022-11-21T03:29:13.247Z,98611.40
2022-11-21T03:31:41.759Z,98606.97
2022-11-21T03:34:09.876Z,98608.01
2022-11-21T03:36:38.049Z,98608.50
2022-11-21T03:39:06.362Z,98603.38
2022-11-21T03:41:34.650Z,98595.30
2022-11-21T03:44:04.462Z,98590.14
2022-11-21T03:46:35.504Z,98581.90
2022-11-21T03:49:03.754Z,98579.48
2022-11-21T03:51:31.856Z,98577.23
2022-11-21T03:54:00.417Z,98569.52
2022-11-21T03:56:29.445Z,98567.96
2022-11-21T03:58:57.664Z,98565.06
2022-11-21T04:01:26.439Z,98562.48
2022-11-21T04:03:54.771Z,98561.61
2022-11-21T04:06:23.089Z,98558.16
2022-11-21T04:08:52.845Z,98552.64
2022-11-21T04:11:23.739Z,98549.73
2022-11-21T04:13:52.595Z,98545.63
2022-11-21T04:16:20.565Z,98540.82
2022-11-21T04:18:48.630Z,98538.08
2022-11-21T04:21:16.621Z,98532.41
2022-11-21T04:23:44.670Z,98534.13
2022-11-21T04:26:12.662Z,98530.86
2022-11-21T04:28:40.782Z,98528.43
2022-11-21T04:31:11.033Z,98523.08
2022-11-21T04:33:40.094Z,98516.55
2022-11-21T04:36:09.171Z,98515.52
2022-11-21T04:38:37.372Z,98517.38
2022-11-21T04:41:05.507Z,98519.05
2022-11-21T04:43:33.520Z,98515.95
2022-11-21T04:46:02.064Z,98513.71
2022-11-21T04:48:30.137Z,98509.73
2022-11-21T04:50:58.975Z,98508.20
2022-11-21T04:53:27.062Z,98503.71
2022-11-21T04:55:55.233Z,98497.70
2022-11-21T04:58:23.303Z,98494.95
2022-11-21T05:00:51.370Z,98498.16
2022-11-21T05:03:19.610Z,98491.75
2022-11-21T05:05:48.407Z,98488.84
2022-11-21T05:08:16.423Z,98481.95
2022-11-21T05:11:02.812Z,98481.06
2022-11-21T05:13:30.863Z,98472.28
2022-11-21T05:15:58.994Z,98469.86
2022-11-21T05:18:27.035Z,98464.36
2022-11-21T05:20:55.111Z,98462.48
2022-11-21T05:23:23.605Z,98460.23
2022-11-21T05:25:51.642Z,98459.52
2022-11-21T05:28:19.889Z,98458.63
2022-11-21T05:30:47.988Z,98457.92
2022-11-21T05:33:16.567Z,98458.06
2022-11-21T05:35:44.667Z,98455.30
2022-11-21T05:38:13.435Z,98448.06
2022-11-21T05:40:41.827Z,98444.27
2022-11-21T05:43:31.099Z,98440.17
2022-11-21T05:45:59.366Z,98437.59
2022-11-21T05:48:27.456Z,98433.80
2022-11-21T05:50:55.498Z,98434.45
2022-11-21T05:53:23.529Z,98431.67
2022-11-21T05:55:52.062Z,98429.10
2022-11-21T05:58:20.668Z,98425.84
2022-11-21T06:00:48.730Z,98428.79
2022-11-21T06:03:31.020Z,98422.27
2022-11-21T06:06:02.077Z,98424.48
2022-11-21T06:08:33.404Z,98424.13
2022-11-21T06:11:03.130Z,98425.66
2022-11-21T06:13:33.827Z,98422.20
2022-11-21T06:16:08.276Z,98424.42
2022-11-21T06:18:41.455Z,98426.33
2022-11-21T06:21:14.863Z,98426.50
2022-11-21T06:23:43.809Z,98428.05
2022-11-21T06:26:14.564Z,98431.16
2022-11-21T06:28:43.976Z,98432.89
2022-11-21T06:31:16.846Z,98433.08
2022-11-21T06:33:45.851Z,98432.89
2022-11-21T06:36:17.209Z,98432.36
2022-11-21T06:38:45.882Z,98431.29
2022-11-21T06:41:16.704Z,98432.62
2022-11-21T06:43:45.512Z,98436.73
2022-11-21T06:46:15.659Z,98437.64
2022-11-21T06:48:44.766Z,98439.85
2022-11-21T06:51:22.429Z,98445.52
2022-11-21T06:53:56.593Z,98442.40
2022-11-21T06:56:26.343Z,98439.67
2022-11-21T06:58:54.919Z,98441.23
2022-11-21T07:01:24.417Z,98439.84
2022-11-21T07:03:53.976Z,98442.55
2022-11-21T07:06:22.883Z,98444.44
2022-11-21T07:11:43.459Z,98442.02
2022-11-21T07:14:11.625Z,98442.56
2022-11-21T07:16:39.668Z,98443.06
2022-11-21T07:19:07.778Z,98442.33
2022-11-21T07:21:35.862Z,98438.70
2022-11-21T07:24:04.257Z,98442.77
2022-11-21T07:26:32.741Z,98442.22
2022-11-21T07:29:00.808Z,98443.39
2022-11-21T07:31:28.900Z,98439.59
2022-11-21T07:33:57.432Z,98438.58
2022-11-21T07:36:26.673Z,98444.24
2022-11-21T07:38:55.171Z,98445.59
2022-11-21T07:41:23.210Z,98439.93
2022-11-21T07:43:51.322Z,98441.83
2022-11-21T07:46:19.576Z,98448.37
2022-11-21T07:48:47.637Z,98454.38
2022-11-21T07:51:15.884Z,98449.90
2022-11-21T07:53:43.958Z,98454.68
2022-11-21T07:56:14.213Z,98456.52
2022-11-21T07:58:42.331Z,98457.30
2022-11-21T08:01:10.711Z,98455.34
2022-11-21T08:03:38.928Z,98457.33
2022-11-21T08:06:07.092Z,98466.06
2022-11-21T08:08:35.444Z,98470.88
2022-11-21T08:11:07.943Z,98476.70
2022-11-21T08:13:36.174Z,98472.02
2022-11-21T08:16:04.778Z,98474.56
2022-11-21T08:18:32.975Z,98473.67
2022-11-21T08:21:03.703Z,98483.14
2022-11-21T08:23:32.620Z,98482.23
2022-11-21T08:26:00.917Z,98476.50
2022-11-21T08:28:29.163Z,98480.23
2022-11-21T08:30:58.958Z,98482.60
2022-11-21T08:33:28.607Z,98482.91
2022-11-21T08:35:57.748Z,98483.87
2022-11-21T08:38:26.414Z,98487.91
2022-11-21T08:41:17.777Z,98483.59
2022-11-21T08:43:48.824Z,98489.92
2022-11-21T08:46:18.933Z,98492.20
2022-11-21T08:48:47.173Z,98492.93
2022-11-21T08:51:15.569Z,98497.67
2022-11-21T08:53:44.317Z,98497.44
2022-11-21T08:56:13.058Z,98494.50
2022-11-21T08:58:41.350Z,98496.78
2022-11-21T09:01:10.221Z,98509.91
2022-11-21T09:03:38.873Z,98504.85
2022-11-21T09:06:08.399Z,98509.30
2022-11-21T09:08:37.134Z,98510.46
2022-11-21T09:11:10.248Z,98516.80
2022-11-21T09:13:39.013Z,98515.98
2022-11-21T09:16:26.462Z,98517.86
2022-11-21T09:18:54.714Z,98530.59
2022-11-21T09:21:23.248Z,98538.48
2022-11-21T09:23:51.350Z,98537.30
2022-11-21T09:26:19.501Z,98533.91
2022-11-21T09:28:47.684Z,98534.14
2022-11-21T09:31:17.869Z,98536.05
2022-11-21T09:33:47.808Z,98537.59
2022-11-21T09:36:18.810Z,98539.52
2022-11-21T09:38:46.912Z,98537.67
2022-11-21T09:41:53.536Z,98540.52
2022-11-21T09:44:50.183Z,98545.33
2022-11-21T09:47:30.477Z,98548.15
2022-11-21T09:50:20.550Z,98549.21
2022-11-21T09:53:21.290Z,98549.17
2022-11-21T09:56:03.583Z,98548.30
2022-11-21T09:58:44.273Z,98550.45
2022-11-21T10:01:14.145Z,98556.77
2022-11-21T10:03:49.633Z,98559.80
2022-11-21T10:06:26.100Z,98558.48
2022-11-21T10:08:57.256Z,98562.00
2022-11-21T10:12:07.108Z,98558.52
2022-11-21T10:14:46.394Z,98554.84
2022-11-21T10:17:30.179Z,98548.63
2022-11-21T10:20:22.617Z,98549.83
2022-11-21T10:22:56.582Z,98561.58
2022-11-21T10:25:28.467Z,98566.33
2022-11-21T10:28:28.375Z,98577.80
2022-11-21T10:30:59.753Z,98584.27
2022-11-21T10:33:32.406Z,98590.98
2022-11-21T10:36:07.736Z,98593.70
2022-11-21T10:38:42.200Z,98600.73
2022-11-21T10:41:49.873Z,98599.13
2022-11-21T10:44:48.404Z,98599.35
2022-11-21T10:47:35.718Z,98601.15
2022-11-21T10:50:20.776Z,98600.05
2022-11-21T10:52:53.897Z,98601.72
2022-11-21T10:55:22.025Z,98603.04
2022-11-21T10:57:51.907Z,98607.29
2022-11-21T11:00:24.253Z,98610.26
2022-11-21T11:02:56.031Z,98613.59
2022-11-21T11:05:31.832Z,98620.48
2022-11-21T11:08:15.199Z,98624.15
2022-11-21T11:11:02.247Z,98629.15
2022-11-21T11:13:45.977Z,98629.04
2022-11-21T11:16:18.035Z,98632.13
2022-11-21T11:18:58.452Z,98632.98
2022-11-21T11:21:28.650Z,98634.16
2022-11-21T11:24:27.632Z,98633.98
2022-11-21T11:27:02.803Z,98636.72
2022-11-21T11:29:35.398Z,98635.99
2022-11-21T11:32:20.589Z,98633.85
2022-11-21T11:34:49.695Z,98634.54
2022-11-21T11:37:20.771Z,98629.56
2022-11-21T11:40:28.601Z,98631.12
2022-11-21T11:43:38.590Z,98626.79
2022-11-21T11:46:40.912Z,98628.98
2022-11-21T11:49:21.291Z,98631.52
2022-11-21T11:51:59.670Z,98635.27
2022-11-21T11:54:34.912Z,98643.34
2022-11-21T11:57:04.852Z,98640.15
2022-11-21T11:59:42.475Z,98647.35
2022-11-21T12:02:22.361Z,98654.20
2022-11-21T12:05:09.409Z,98662.35
2022-11-21T12:11:11.785Z,98667.81
2022-11-21T12:13:41.754Z,98666.35
2022-11-21T12:16:14.686Z,98670.73
2022-11-21T12:18:47.006Z,98670.01
2022-11-21T12:21:16.942Z,98667.60
2022-11-21T12:23:50.603Z,98675.33
2022-11-21T12:26:37.036Z,98673.95
2022-11-21T12:29:23.590Z,98680.48
2022-11-21T12:32:10.208Z,98685.95
2022-11-21T12:34:57.938Z,98683.42
2022-11-21T12:37:38.896Z,98686.21
2022-11-21T12:40:24.242Z,98683.75
2022-11-21T12:43:01.369Z,98682.58
2022-11-21T12:45:47.156Z,98679.20
2022-11-21T12:49:07.241Z,98684.67
2022-11-21T12:52:28.426Z,98687.18
2022-11-21T12:55:18.820Z,98682.17
2022-11-21T12:58:27.553Z,98685.55
2022-11-21T13:01:34.624Z,98689.61
2022-11-21T13:04:16.042Z,98688.11
2022-11-21T13:06:48.421Z,98695.05
2022-11-21T13:09:20.901Z,98697.11
2022-11-21T13:12:32.894Z,98695.94
2022-11-21T13:15:16.747Z,98696.94
2022-11-21T13:17:54.864Z,98699.33
2022-11-21T13:20:34.690Z,98704.55
2022-11-21T13:23:07.084Z,98710.80
2022-11-21T13:25:38.623Z,98707.51
2022-11-21T13:28:13.562Z,98711.61
2022-11-21T13:30:52.561Z,98717.80
2022-11-21T13:33:48.220Z,98716.06
2022-11-21T13:36:39.200Z,98721.48
2022-11-21T13:39:07.890Z,98724.44
2022-11-21T13:41:55.073Z,98725.95
2022-11-21T13:44:32.893Z,98724.73
2022-11-21T13:47:05.487Z,98730.05
2022-11-21T13:49:56.308Z,98732.44
2022-11-21T13:52:43.003Z,98732.38
2022-11-21T13:55:39.557Z,98728.92
2022-11-21T13:58:19.905Z,98736.46
2022-11-21T14:01:36.489Z,98739.21
2022-11-21T14:04:29.061Z,98742.26
2022-11-21T14:07:34.255Z,98747.88
2022-11-21T14:10:06.460Z,98745.13
2022-11-21T14:12:44.669Z,98744.97
2022-11-21T14:15:24.791Z,98746.18
2022-11-21T14:18:01.475Z,98745.48
2022-11-21T14:20:57.518Z,98751.13
2022-11-21T14:23:28.557Z,98748.05
2022-11-21T14:26:07.217Z,98743.92
2022-11-21T14:28:35.638Z,98748.95
2022-11-21T14:31:08.919Z,98752.42
2022-11-21T14:33:41.597Z,98749.98
2022-11-21T14:36:31.908Z,98752.54
2022-11-21T14:42:11.272Z,98748.91
2022-11-21T14:44:42.023Z,98753.20
2022-11-21T14:47:26.207Z,98753.78
2022-11-21T14:50:00.958Z,98750.19
2022-11-21T14:52:34.208Z,98744.01
2022-11-21T14:57:57.863Z,98747.97
2022-11-21T15:03:24.136Z,98752.08
2022-11-21T15:06:07.769Z,98753.98
2022-11-21T15:11:47.176Z,98753.31
2022-11-21T15:14:26.905Z,98747.83
2022-11-21T15:16:58.060Z,98746.29
2022-11-21T15:19:29.154Z,98742.71
2022-11-21T15:21:58.475Z,98741.34
2022-11-21T15:24:42.832Z,98746.22
2022-11-21T15:27:26.982Z,98752.45
2022-11-21T15:30:23.029Z,98747.80
2022-11-21T15:33:13.855Z,98750.75
2022-11-21T15:35:56.912Z,98745.73
2022-11-21T15:38:50.363Z,98742.96
2022-11-21T15:41:18.385Z,98739.71
2022-11-21T15:44:20.387Z,98741.10
2022-11-21T15:46:52.142Z,98733.38
2022-11-21T15:49:35.623Z,98734.96
2022-11-21T15:52:12.495Z,98738.73
2022-11-21T15:54:40.659Z,98734.76
2022-11-21T15:57:09.997Z,98734.07
2022-11-21T15:59:38.788Z,98737.86
2022-11-21T16:02:12.553Z,98738.05
2022-11-21T16:04:42.162Z,98737.89
2022-11-21T16:07:10.403Z,98738.41
2022-11-21T16:09:39.603Z,98737.70
2022-11-21T16:12:09.368Z,98732.20
2022-11-21T16:14:37.595Z,98731.70
2022-11-21T16:17:05.773Z,98735.95
2022-11-21T16:19:34.442Z,98734.91
2022-11-21T16:22:03.310Z,98734.23
2022-11-21T16:24:31.405Z,98734.57
2022-11-21T16:26:59.873Z,98727.86
2022-11-21T16:29:28.422Z,98727.17
2022-11-21T16:31:56.829Z,98727.19
2022-11-21T16:34:27.627Z,98733.05
2022-11-21T16:36:55.999Z,98730.65
2022-11-21T16:39:24.238Z,98734.08
2022-11-21T16:41:53.523Z,98734.25
2022-11-21T16:44:21.623Z,98731.71
2022-11-21T16:46:54.672Z,98737.60
2022-11-21T16:49:27.083Z,98741.59
2022-11-21T16:51:59.133Z,98745.37
2022-11-21T16:54:27.441Z,98744.47
2022-11-21T16:56:55.845Z,98742.56
2022-11-21T16:59:25.519Z,98741.17
2022-11-21T17:01:54.357Z,98743.07
2022-11-21T17:04:23.079Z,98741.33
2022-11-21T17:06:51.219Z,98740.29
2022-11-21T17:09:19.961Z,98741.17
2022-11-21T17:11:48.149Z,98742.89
2022-11-21T17:14:16.770Z,98744.27
2022-11-21T17:16:46.001Z,98747.38
2022-11-21T17:19:16.571Z,98746.88
2022-11-21T17:21:45.256Z,98751.70
2022-11-21T17:24:13.735Z,98748.09
2022-11-21T17:26:41.955Z,98746.22
2022-11-21T17:29:10.379Z,98745.94
2022-11-21T17:31:38.674Z,98751.29
2022-11-21T17:34:07.325Z,98751.52
2022-11-21T17:36:35.495Z,98756.70
2022-11-21T17:39:04.193Z,98755.49
2022-11-21T17:41:35.580Z,98758.23
2022-11-21T17:44:03.918Z,98754.77
2022-11-21T17:46:33.049Z,98756.33
2022-11-21T17:49:02.402Z,98757.52
2022-11-21T17:51:38.122Z,98760.60
2022-11-21T17:54:11.300Z,98752.52
2022-11-21T17:56:45.403Z,98751.66
2022-11-21T17:59:15.009Z,98751.48
2022-11-21T18:01:43.503Z,98752.17
2022-11-21T18:04:15.330Z,98754.61
2022-11-21T18:06:44.115Z,98753.79
2022-11-21T18:09:13.265Z,98753.64
2022-11-21T18:11:42.153Z,98756.09
2022-11-21T18:14:12.751Z,98756.65
2022-11-21T18:16:46.064Z,98755.96
2022-11-21T18:19:18.749Z,98758.55
2022-11-21T18:21:47.340Z,98752.34
2022-11-21T18:24:15.783Z,98751.46
2022-11-21T18:26:44.364Z,98748.55
2022-11-21T18:32:04.152Z,98741.85
2022-11-21T18:34:32.802Z,98737.92
2022-11-21T18:37:01.331Z,98738.80
2022-11-21T18:39:30.283Z,98736.59
2022-11-21T18:41:59.390Z,98731.30
2022-11-21T18:44:27.666Z,98735.13
2022-11-21T18:46:55.865Z,98731.22
2022-11-21T18:49:24.205Z,98725.25
2022-11-21T18:51:52.640Z,98718.94
2022-11-21T18:54:21.311Z,98718.59
2022-11-21T18:56:50.149Z,98720.30
2022-11-21T18:59:18.353Z,98723.26
2022-11-21T19:01:47.303Z,98716.07
2022-11-21T19:04:15.863Z,98710.73
2022-11-21T19:06:44.029Z,98711.79
2022-11-21T19:09:12.531Z,98711.23
2022-11-21T19:11:41.527Z,98713.61
2022-11-21T19:14:09.810Z,98712.41
2022-11-21T19:16:39.533Z,98714.34
2022-11-21T19:21:59.204Z,98711.46
2022-11-21T19:24:27.551Z,98709.59
2022-11-21T19:26:56.366Z,98713.70
2022-11-21T19:29:24.944Z,98713.72
2022-11-21T19:31:53.983Z,98709.92
2022-11-21T19:34:22.893Z,98708.21
2022-11-21T19:37:00.581Z,98708.92
2022-11-21T19:39:32.300Z,98709.44
2022-11-21T19:42:01.040Z,98708.58
2022-11-21T19:44:29.716Z,98705.81
2022-11-21T19:46:58.735Z,98707.16
2022-11-21T19:49:27.704Z,98708.52
2022-11-21T19:51:56.502Z,98710.27
2022-11-21T19:54:25.269Z,98701.59
2022-11-21T19:56:55.500Z,98697.13
2022-11-21T19:59:24.039Z,98703.16
2022-11-21T20:01:53.378Z,98702.48
2022-11-21T20:04:23.848Z,98698.01
2022-11-21T20:06:54.566Z,98693.58
2022-11-21T20:09:24.804Z,98685.84
2022-11-21T20:11:56.613Z,98678.64
2022-11-21T20:14:26.851Z,98681.23
2022-11-21T20:16:57.842Z,98680.52
2022-11-21T20:19:27.521Z,98682.22
2022-11-21T20:21:56.703Z,98680.85
2022-11-21T20:24:29.354Z,98680.19
2022-11-21T20:26:59.970Z,98673.82
2022-11-21T20:29:29.822Z,98670.74
2022-11-21T20:32:01.880Z,98670.39
2022-11-21T20:34:32.288Z,98662.83
2022-11-21T20:37:05.020Z,98660.08
2022-11-21T20:39:35.725Z,98660.63
2022-11-21T20:42:07.457Z,98657.21
2022-11-21T20:47:29.281Z,98651.20
2022-11-21T20:49:57.869Z,98651.05
2022-11-21T20:55:15.211Z,98641.40
2022-11-21T20:57:44.230Z,98633.55
2022-11-21T21:00:13.306Z,98627.61
2022-11-21T21:02:41.626Z,98626.85
2022-11-21T21:05:10.042Z,98619.51
2022-11-21T21:07:40.791Z,98621.29
2022-11-21T21:10:09.842Z,98615.35
2022-11-21T21:12:38.756Z,98614.70
2022-11-21T21:15:07.711Z,98606.52
2022-11-21T21:17:36.766Z,98605.05
2022-11-21T21:20:07.689Z,98601.30
2022-11-21T21:22:36.074Z,98598.75
2022-11-21T21:25:04.802Z,98597.77
2022-11-21T21:27:33.988Z,98600.20
2022-11-21T21:30:04.091Z,98600.73
2022-11-21T21:32:32.184Z,98594.58
2022-11-21T21:35:00.439Z,98599.56
2022-11-21T21:37:29.206Z,98593.25
2022-11-21T21:39:57.833Z,98592.95
2022-11-21T21:42:26.120Z,98597.27
2022-11-21T21:44:55.073Z,98592.98
2022-11-21T21:47:23.382Z,98599.67
2022-11-21T21:49:51.463Z,98610.67
2022-11-21T21:52:20.120Z,98618.04
2022-11-21T21:54:49.050Z,98621.48
2022-11-21T21:57:17.150Z,98622.68
2022-11-21T21:59:45.293Z,98628.85
2022-11-21T22:02:14.577Z,98633.80
2022-11-21T22:04:42.731Z,98634.81
2022-11-21T22:07:11.586Z,98637.03
2022-11-21T22:09:39.785Z,98639.62
2022-11-21T22:12:08.305Z,98641.17
2022-11-21T22:14:36.536Z,98642.89
2022-11-21T22:17:04.627Z,98637.61
2022-11-21T22:19:32.738Z,98635.06
2022-11-21T22:22:01.982Z,98637.48
2022-11-21T22:24:30.159Z,98643.73
2022-11-21T22:26:58.689Z,98644.95
2022-11-21T22:29:26.938Z,98649.24
2022-11-21T22:31:55.765Z,98653.03
2022-11-21T22:34:24.070Z,98657.50
2022-11-21T22:36:52.156Z,98660.77
2022-11-21T22:39:20.403Z,98662.32
2022-11-21T22:41:48.464Z,98663.70
2022-11-21T22:44:16.743Z,98671.27
2022-11-21T22:46:44.821Z,98677.26
2022-11-21T22:49:14.597Z,98680.35
2022-11-21T22:51:43.863Z,98673.50
2022-11-21T22:54:13.163Z,98669.39
2022-11-21T22:56:41.679Z,98672.84
2022-11-21T22:59:14.020Z,98669.08
2022-11-21T23:01:42.285Z,98658.95
2022-11-21T23:04:16.174Z,98656.89
2022-11-21T23:06:45.764Z,98658.11
2022-11-21T23:09:13.852Z,98659.32
2022-11-21T23:11:41.916Z,98660.86
2022-11-21T23:14:10.559Z,98664.98
2022-11-21T23:16:38.608Z,98670.30
2022-11-21T23:19:07.321Z,98674.27
2022-11-21T23:21:35.349Z,98672.39
2022-11-21T23:24:03.860Z,98676.00
2022-11-21T23:26:31.949Z,98667.42
2022-11-21T23:29:06.744Z,98665.04
2022-11-21T23:31:36.651Z,98663.66
2022-11-21T23:34:04.938Z,98663.14
2022-11-21T23:36:33.075Z,98666.75
2022-11-21T23:39:01.140Z,98661.77
2022-11-21T23:41:29.321Z,98652.69
2022-11-21T23:43:59.947Z,98649.09
2022-11-21T23:46:29.219Z,98638.11
2022-11-21T23:48:57.797Z,98640.18
2022-11-21T23:51:25.942Z,98638.62
2022-11-21T23:53:54.203Z,98639.31
2022-11-21T23:56:22.521Z,98627.98
2022-11-21T23:58:50.594Z,98611.73
